Time;durP1;ratioP1;P1;durP2;ratioP2;P2;SDS_P1;SDS_P2;PMS_P1;PMS_P2;Temp;Humidity;BMP_temperature;BMP_pressure;BME280_temperature;BME280_humidity;BME280_pressure;Samples;Min_cycle;Max_cycle;Signal;HPM_P1;HPM_P2
2022/01/07 00:00:17;;;;;;;9.43;3.57;;;4.10;99.90;;;;;;5056677;28;20291;-51
2022/01/07 00:02:50;;;;;;;3.90;2.80;;;4.10;99.90;;;;;;5062129;28;20223;-49
2022/01/07 00:05:18;;;;;;;6.30;2.90;;;4.10;99.90;;;;;;5059180;28;20201;-50
2022/01/07 00:07:45;;;;;;;5.80;2.93;;;4.00;99.90;;;;;;5060463;28;20209;-51
2022/01/07 00:10:15;;;;;;;5.17;2.90;;;4.00;99.90;;;;;;5062954;28;20231;-50
2022/01/07 00:12:43;;;;;;;8.07;3.50;;;4.00;99.90;;;;;;5061626;28;20211;-50
2022/01/07 00:15:10;;;;;;;7.67;3.67;;;3.90;99.90;;;;;;5061495;28;20245;-49
2022/01/07 00:17:37;;;;;;;7.23;2.93;;;3.90;99.90;;;;;;5062980;28;20781;-49
2022/01/07 00:20:09;;;;;;;6.73;3.40;;;3.90;99.90;;;;;;5061241;28;20208;-51
2022/01/07 00:22:38;;;;;;;9.17;3.23;;;3.90;99.90;;;;;;5062204;28;20223;-50
2022/01/07 00:25:07;;;;;;;5.10;2.53;;;3.90;99.90;;;;;;5061251;28;20239;-52
2022/01/07 00:27:34;;;;;;;7.47;3.20;;;3.90;99.90;;;;;;5061731;28;20196;-49
2022/01/07 00:30:00;;;;;;;5.77;3.13;;;3.90;99.90;;;;;;5060759;28;20243;-49
2022/01/07 00:32:27;;;;;;;9.73;3.13;;;3.80;99.90;;;;;;5060254;28;20238;-51
2022/01/07 00:34:54;;;;;;;8.63;3.17;;;3.80;99.90;;;;;;5061120;28;20290;-50
2022/01/07 00:37:21;;;;;;;5.00;2.60;;;3.70;99.90;;;;;;5062170;28;20200;-51
2022/01/07 00:39:49;;;;;;;8.77;3.20;;;3.70;99.90;;;;;;5061313;28;20235;-51
2022/01/07 00:42:16;;;;;;;11.27;2.97;;;3.60;99.90;;;;;;5060662;28;20224;-54
2022/01/07 00:44:42;;;;;;;7.50;2.93;;;3.60;99.90;;;;;;5061651;28;20250;-51
2022/01/07 00:47:09;;;;;;;9.30;2.80;;;3.60;99.90;;;;;;5061664;28;20305;-51
2022/01/07 00:49:36;;;;;;;5.90;2.77;;;3.60;99.90;;;;;;5061545;28;20244;-51
2022/01/07 00:52:04;;;;;;;8.20;3.13;;;3.60;99.90;;;;;;5059942;28;20203;-55
2022/01/07 00:54:31;;;;;;;7.20;3.33;;;3.60;99.90;;;;;;5059631;28;20200;-51
2022/01/07 00:56:58;;;;;;;6.27;2.63;;;3.60;99.90;;;;;;5060732;28;20306;-54
2022/01/07 00:59:24;;;;;;;6.40;2.73;;;3.60;99.90;;;;;;5060754;28;20718;-51
2022/01/07 01:01:51;;;;;;;5.03;2.50;;;3.60;99.90;;;;;;5066283;28;20223;-52
2022/01/07 01:04:38;;;;;;;7.77;3.00;;;3.60;99.90;;;;;;5060564;28;20207;-48
2022/01/07 01:07:05;;;;;;;4.93;2.50;;;3.60;99.90;;;;;;5059557;28;20204;-49
2022/01/07 01:09:32;;;;;;;8.00;2.87;;;3.60;99.90;;;;;;5060728;28;20231;-51
2022/01/07 01:12:00;;;;;;;5.80;2.60;;;3.70;99.90;;;;;;5060188;28;21059;-52
2022/01/07 01:14:28;;;;;;;6.83;2.70;;;3.70;99.90;;;;;;5061760;28;20207;-51
2022/01/07 01:16:56;;;;;;;5.30;2.63;;;3.70;99.90;;;;;;5060376;28;20219;-51
2022/01/07 01:19:23;;;;;;;7.10;2.87;;;3.80;99.90;;;;;;5061505;28;20571;-53
2022/01/07 01:21:50;;;;;;;7.57;2.90;;;3.80;99.90;;;;;;5060967;28;20743;-52
2022/01/07 01:24:17;;;;;;;4.50;2.03;;;3.80;99.90;;;;;;5066191;28;20296;-48
2022/01/07 01:26:44;;;;;;;7.17;2.47;;;3.80;99.90;;;;;;5060482;28;20246;-49
2022/01/07 01:29:11;;;;;;;6.37;2.87;;;3.80;99.90;;;;;;5060975;28;20202;-52
2022/01/07 01:31:38;;;;;;;5.80;2.63;;;3.90;99.90;;;;;;5060640;28;20257;-50
2022/01/07 01:34:05;;;;;;;3.60;2.43;;;3.90;99.90;;;;;;5059951;28;20239;-49
2022/01/07 01:36:32;;;;;;;4.50;2.60;;;3.90;99.90;;;;;;5059424;28;20196;-50
2022/01/07 01:38:59;;;;;;;8.03;2.20;;;3.90;99.90;;;;;;5059604;28;20261;-51
2022/01/07 01:41:26;;;;;;;6.13;2.60;;;3.90;99.90;;;;;;5061729;28;20212;-51
2022/01/07 01:43:54;;;;;;;7.40;2.07;;;3.90;99.90;;;;;;5058121;28;20254;-51
2022/01/07 01:46:21;;;;;;;5.40;2.13;;;3.90;99.90;;;;;;5061760;28;20307;-52
2022/01/07 01:48:49;;;;;;;7.37;2.20;;;3.90;99.90;;;;;;5058607;28;20209;-53
2022/01/07 01:51:16;;;;;;;4.37;2.10;;;4.00;99.90;;;;;;5059871;28;20197;-51
2022/01/07 01:53:43;;;;;;;5.77;1.97;;;3.90;99.90;;;;;;5058325;28;20200;-50
2022/01/07 01:56:10;;;;;;;7.30;2.30;;;3.90;99.90;;;;;;5060040;28;20290;-51
2022/01/07 01:58:37;;;;;;;9.57;2.30;;;3.90;99.90;;;;;;5059497;28;20204;-51
2022/01/07 02:01:04;;;;;;;6.23;1.80;;;3.90;99.90;;;;;;5060063;28;20307;-48
2022/01/07 02:03:32;;;;;;;4.30;2.07;;;3.80;99.90;;;;;;5061551;28;20212;-49
2022/01/07 02:05:59;;;;;;;3.57;1.97;;;3.80;99.90;;;;;;5060111;28;20207;-50
2022/01/07 02:08:26;;;;;;;4.23;1.77;;;3.80;99.90;;;;;;5060005;28;20224;-49
2022/01/07 02:10:55;;;;;;;5.60;1.80;;;3.80;99.90;;;;;;5059582;28;20476;-49
2022/01/07 02:13:21;;;;;;;5.73;2.40;;;3.80;99.90;;;;;;5060841;28;20568;-53
2022/01/07 02:15:49;;;;;;;6.53;1.93;;;3.80;99.90;;;;;;5060496;28;20718;-49
2022/01/07 02:18:17;;;;;;;5.17;2.17;;;3.80;99.90;;;;;;5059910;28;20741;-52
2022/01/07 02:20:45;;;;;;;4.53;2.00;;;3.80;99.90;;;;;;5060292;28;20669;-51
2022/01/07 02:23:13;;;;;;;3.40;1.53;;;3.90;99.90;;;;;;5060209;28;21074;-51
2022/01/07 02:25:40;;;;;;;7.07;2.10;;;3.90;99.90;;;;;;5058753;28;20235;-50
2022/01/07 02:28:08;;;;;;;4.67;1.80;;;3.80;99.90;;;;;;5059491;28;20660;-50
2022/01/07 02:30:35;;;;;;;5.40;2.00;;;3.80;99.90;;;;;;5059973;28;20284;-52
2022/01/07 02:33:02;;;;;;;7.50;2.17;;;3.80;99.90;;;;;;5058446;28;20326;-50
2022/01/07 02:35:32;;;;;;;5.13;2.23;;;3.80;99.90;;;;;;5057329;28;20675;-50
2022/01/07 02:38:00;;;;;;;6.67;2.50;;;3.70;99.90;;;;;;5060963;28;20254;-50
2022/01/07 02:40:27;;;;;;;3.63;1.70;;;3.60;99.90;;;;;;5060327;28;20586;-51
2022/01/07 02:42:54;;;;;;;4.23;2.13;;;3.60;99.90;;;;;;5060703;28;20294;-50
2022/01/07 02:45:21;;;;;;;5.33;1.80;;;3.60;99.90;;;;;;5060081;28;20199;-53
2022/01/07 02:47:55;;;;;;;5.53;2.00;;;3.60;99.90;;;;;;5060008;28;20192;-52
2022/01/07 02:50:25;;;;;;;4.30;1.63;;;3.50;99.90;;;;;;5059249;28;20657;-52
2022/01/07 02:52:52;;;;;;;4.13;1.90;;;3.40;99.90;;;;;;5058529;28;20722;-53
2022/01/07 02:55:20;;;;;;;5.43;2.17;;;3.40;99.90;;;;;;5058272;28;20282;-52
2022/01/07 02:57:48;;;;;;;4.13;1.97;;;3.30;99.90;;;;;;5060647;28;20212;-48
2022/01/07 03:00:17;;;;;;;3.70;1.70;;;3.20;99.90;;;;;;5059103;28;20730;-48
2022/01/07 03:02:46;;;;;;;7.57;1.83;;;3.20;99.90;;;;;;5058221;28;21248;-52
2022/01/07 03:05:13;;;;;;;4.40;2.13;;;3.20;99.90;;;;;;5058600;28;20203;-51
2022/01/07 03:07:41;;;;;;;3.53;2.30;;;3.10;99.90;;;;;;5058561;28;20282;-50
2022/01/07 03:10:10;;;;;;;2.37;2.07;;;3.10;99.90;;;;;;5059365;28;20640;-51
2022/01/07 03:12:37;;;;;;;4.47;2.37;;;3.10;99.90;;;;;;5058150;28;20199;-50
2022/01/07 03:15:05;;;;;;;4.47;2.13;;;3.00;99.90;;;;;;5058362;28;20738;-52
2022/01/07 03:17:32;;;;;;;5.00;1.57;;;3.00;99.90;;;;;;5060714;28;20628;-51
2022/01/07 03:19:59;;;;;;;2.83;1.93;;;3.00;99.90;;;;;;5057580;28;20668;-50
2022/01/07 03:22:26;;;;;;;7.37;2.10;;;2.80;99.90;;;;;;5057272;28;20265;-51
2022/01/07 03:24:53;;;;;;;4.77;2.10;;;2.80;99.90;;;;;;5058631;28;20298;-51
2022/01/07 03:27:20;;;;;;;6.97;2.33;;;2.80;99.90;;;;;;5060222;28;20227;-53
2022/01/07 03:29:46;;;;;;;7.30;2.50;;;2.80;99.90;;;;;;5058603;28;20338;-53
2022/01/07 03:32:13;;;;;;;4.80;2.80;;;2.80;99.90;;;;;;5059188;28;20227;-52
2022/01/07 03:34:40;;;;;;;3.20;1.60;;;2.80;99.90;;;;;;5057818;28;20195;-51
2022/01/07 03:37:07;;;;;;;7.07;2.57;;;2.70;99.90;;;;;;5058153;28;20672;-54
2022/01/07 03:39:34;;;;;;;3.77;2.47;;;2.80;99.90;;;;;;5056412;28;20196;-52
2022/01/07 03:42:02;;;;;;;6.40;3.23;;;2.80;99.90;;;;;;5055881;28;20207;-52
2022/01/07 03:44:29;;;;;;;6.07;2.60;;;2.70;99.90;;;;;;5056334;28;20196;-51
2022/01/07 03:46:56;;;;;;;3.97;2.37;;;2.70;99.90;;;;;;5060041;28;20299;-50
2022/01/07 03:49:22;;;;;;;3.90;2.23;;;2.70;99.90;;;;;;5058064;28;20191;-51
2022/01/07 03:51:49;;;;;;;4.03;2.40;;;2.70;99.90;;;;;;5057945;28;20230;-51
2022/01/07 03:54:16;;;;;;;4.17;2.23;;;2.70;99.90;;;;;;5058562;28;20199;-50
2022/01/07 03:56:43;;;;;;;5.33;2.77;;;2.60;99.90;;;;;;5058553;28;20222;-52
2022/01/07 03:59:11;;;;;;;4.30;2.23;;;2.60;99.90;;;;;;5056175;28;20286;-50
2022/01/07 04:01:37;;;;;;;4.80;2.60;;;2.60;99.90;;;;;;5059177;28;20748;-51
2022/01/07 04:04:05;;;;;;;6.03;2.93;;;2.60;99.90;;;;;;5057423;28;20227;-52
2022/01/07 04:06:32;;;;;;;3.77;2.50;;;2.70;99.90;;;;;;5055245;28;20329;-49
2022/01/07 04:08:58;;;;;;;3.93;2.33;;;2.70;99.90;;;;;;5058573;28;20343;-52
2022/01/07 04:11:25;;;;;;;8.00;3.10;;;2.70;99.90;;;;;;5059788;28;20214;-52
2022/01/07 04:13:55;;;;;;;5.03;2.40;;;2.80;99.90;;;;;;5056910;28;20207;-52
2022/01/07 04:16:22;;;;;;;6.17;3.10;;;2.80;99.90;;;;;;5059212;28;20620;-51
2022/01/07 04:18:49;;;;;;;4.43;2.87;;;2.80;99.90;;;;;;5059310;28;20207;-50
2022/01/07 04:21:16;;;;;;;3.73;2.33;;;2.80;99.90;;;;;;5057293;28;20230;-50
2022/01/07 04:23:42;;;;;;;5.73;3.63;;;2.90;99.90;;;;;;5058206;28;20223;-52
2022/01/07 04:26:09;;;;;;;4.27;3.10;;;3.00;99.90;;;;;;5057692;28;20983;-51
2022/01/07 04:28:36;;;;;;;6.27;2.70;;;3.00;99.90;;;;;;5058153;28;20648;-49
2022/01/07 04:31:03;;;;;;;3.33;2.87;;;3.00;99.90;;;;;;5057036;28;20228;-53
2022/01/07 04:33:32;;;;;;;5.20;2.93;;;3.00;99.90;;;;;;5058900;28;20247;-51
2022/01/07 04:36:00;;;;;;;4.53;3.00;;;3.10;99.90;;;;;;5072433;28;20651;-51
2022/01/07 04:38:27;;;;;;;3.63;2.77;;;3.20;99.90;;;;;;5058678;28;20235;-49
2022/01/07 04:40:54;;;;;;;6.67;4.47;;;3.20;99.90;;;;;;5058361;28;20250;-50
2022/01/07 04:43:21;;;;;;;5.43;3.67;;;3.20;99.90;;;;;;5058325;28;20253;-54
2022/01/07 04:45:48;;;;;;;6.93;3.70;;;3.30;99.90;;;;;;5058387;28;20552;-48
2022/01/07 04:48:15;;;;;;;5.40;3.93;;;3.30;99.90;;;;;;5060109;28;20258;-53
2022/01/07 04:50:41;;;;;;;6.00;3.57;;;3.40;99.90;;;;;;5058952;28;20294;-51
2022/01/07 04:53:08;;;;;;;5.13;3.60;;;3.40;99.90;;;;;;5060246;28;20237;-52
2022/01/07 04:55:37;;;;;;;4.37;3.77;;;3.40;99.90;;;;;;5063908;28;20644;-51
2022/01/07 04:58:11;;;;;;;4.10;3.70;;;3.50;99.90;;;;;;5060382;28;20703;-52
2022/01/07 05:00:39;;;;;;;5.00;3.80;;;3.50;99.90;;;;;;5060545;28;20499;-50
2022/01/07 05:03:06;;;;;;;5.73;4.47;;;3.50;99.90;;;;;;5061872;28;20207;-51
2022/01/07 05:05:33;;;;;;;7.07;4.07;;;3.60;99.90;;;;;;5059827;28;20219;-51
2022/01/07 05:08:02;;;;;;;4.43;3.63;;;3.60;99.90;;;;;;5059124;28;20192;-51
2022/01/07 05:10:29;;;;;;;5.83;4.40;;;3.60;99.90;;;;;;5062397;28;20265;-54
2022/01/07 05:12:56;;;;;;;5.33;4.13;;;3.60;99.90;;;;;;5061053;28;20236;-50
2022/01/07 05:15:23;;;;;;;9.53;4.70;;;3.60;99.90;;;;;;5061313;28;20687;-53
2022/01/07 05:17:51;;;;;;;6.03;4.40;;;3.70;99.90;;;;;;5061988;28;20272;-51
2022/01/07 05:20:18;;;;;;;5.20;4.27;;;3.70;99.90;;;;;;5059580;28;20730;-54
2022/01/07 05:22:46;;;;;;;6.87;5.03;;;3.70;99.90;;;;;;5060939;28;20989;-52
2022/01/07 05:25:14;;;;;;;6.70;4.83;;;3.80;99.90;;;;;;5061332;28;20197;-50
2022/01/07 05:27:41;;;;;;;8.83;5.70;;;3.80;99.90;;;;;;5060250;28;20203;-51
2022/01/07 05:30:10;;;;;;;8.30;5.37;;;3.80;99.90;;;;;;5059329;28;20203;-48
2022/01/07 05:32:36;;;;;;;10.07;5.40;;;3.90;99.90;;;;;;5059703;28;20235;-49
2022/01/07 05:35:05;;;;;;;8.10;5.27;;;3.90;99.90;;;;;;5059977;28;20195;-54
2022/01/07 05:37:32;;;;;;;8.33;5.93;;;3.90;99.90;;;;;;5061239;28;20261;-50
2022/01/07 05:39:59;;;;;;;11.23;6.33;;;3.90;99.90;;;;;;5054917;28;20290;-52
2022/01/07 05:42:26;;;;;;;9.57;6.30;;;3.90;99.90;;;;;;5060804;28;20246;-48
2022/01/07 05:44:55;;;;;;;8.93;6.00;;;4.00;99.90;;;;;;5060092;28;20761;-52
2022/01/07 05:47:22;;;;;;;12.67;6.27;;;4.00;99.90;;;;;;5060874;28;20249;-52
2022/01/07 05:49:49;;;;;;;8.00;6.67;;;4.00;99.90;;;;;;5060282;28;20208;-52
2022/01/07 05:52:16;;;;;;;9.10;6.10;;;4.00;99.90;;;;;;5061985;28;20200;-52
2022/01/07 05:54:43;;;;;;;12.43;7.17;;;4.10;99.90;;;;;;5060292;28;20322;-50
2022/01/07 05:57:10;;;;;;;11.57;6.97;;;4.10;99.90;;;;;;5060809;28;20224;-48
2022/01/07 05:59:36;;;;;;;11.57;7.20;;;4.10;99.90;;;;;;5060903;28;20290;-49
2022/01/07 06:02:05;;;;;;;8.37;6.27;;;4.10;99.90;;;;;;5062726;28;20211;-51
2022/01/07 06:04:32;;;;;;;10.57;6.50;;;4.10;99.90;;;;;;5061408;28;20699;-48
2022/01/07 06:06:59;;;;;;;10.37;6.97;;;4.10;99.90;;;;;;5059969;28;20269;-48
2022/01/07 06:09:25;;;;;;;8.80;7.30;;;4.10;99.90;;;;;;5057773;28;20262;-51
2022/01/07 06:11:52;;;;;;;8.13;6.07;;;4.20;99.90;;;;;;5062512;28;20345;-48
2022/01/07 06:14:19;;;;;;;8.83;6.37;;;4.20;99.90;;;;;;5059370;28;20207;-48
2022/01/07 06:16:46;;;;;;;12.47;7.00;;;4.20;99.90;;;;;;5059873;28;20290;-50
2022/01/07 06:19:13;;;;;;;10.73;6.80;;;4.20;99.90;;;;;;5059768;28;20235;-52
2022/01/07 06:21:40;;;;;;;8.03;7.17;;;4.20;99.90;;;;;;5059040;28;20769;-54
2022/01/07 06:24:06;;;;;;;8.77;6.60;;;4.20;99.90;;;;;;5061770;28;20257;-50
2022/01/07 06:26:33;;;;;;;9.87;5.57;;;4.20;99.90;;;;;;5060709;28;20283;-51
2022/01/07 06:29:00;;;;;;;9.53;6.70;;;4.20;99.90;;;;;;5058890;28;20196;-51
2022/01/07 06:31:28;;;;;;;13.33;6.57;;;4.30;99.90;;;;;;5060941;28;20248;-53
2022/01/07 06:33:55;;;;;;;9.70;6.67;;;4.30;99.90;;;;;;5056143;28;20243;-50
2022/01/07 06:36:22;;;;;;;8.97;5.87;;;4.30;99.90;;;;;;5059837;28;20219;-52
2022/01/07 06:38:48;;;;;;;12.07;6.40;;;4.30;99.90;;;;;;5062890;28;20214;-50
2022/01/07 06:41:15;;;;;;;12.50;6.07;;;4.30;99.90;;;;;;5059830;28;20296;-54
2022/01/07 06:43:43;;;;;;;8.93;6.50;;;4.30;99.90;;;;;;5060509;28;20303;-51
2022/01/07 06:46:11;;;;;;;10.83;6.47;;;4.40;99.90;;;;;;5059707;28;20200;-50
2022/01/07 06:48:40;;;;;;;13.37;6.50;;;4.40;99.90;;;;;;5059525;28;20295;-50
2022/01/07 06:51:07;;;;;;;10.00;6.40;;;4.40;99.90;;;;;;5057973;28;20315;-50
2022/01/07 06:53:34;;;;;;;11.30;6.20;;;4.40;99.90;;;;;;5057720;28;20787;-51
2022/01/07 06:56:03;;;;;;;7.90;6.17;;;4.40;99.90;;;;;;5059953;28;20203;-51
2022/01/07 06:58:30;;;;;;;8.90;6.00;;;4.40;99.90;;;;;;5057605;28;20222;-50
2022/01/07 07:00:57;;;;;;;10.93;7.40;;;4.40;99.90;;;;;;5056173;28;20636;-50
2022/01/07 07:03:24;;;;;;;12.30;6.70;;;4.40;99.90;;;;;;5058938;28;20673;-51
2022/01/07 07:05:51;;;;;;;9.07;6.57;;;4.40;99.90;;;;;;5056946;28;20299;-51
2022/01/07 07:08:18;;;;;;;8.47;6.33;;;4.40;99.90;;;;;;5040930;28;20204;-50
2022/01/07 07:10:45;;;;;;;10.93;6.70;;;4.40;99.90;;;;;;5058437;28;20231;-51
2022/01/07 07:13:12;;;;;;;11.30;7.03;;;4.40;99.90;;;;;;5060230;28;20257;-50
2022/01/07 07:15:38;;;;;;;8.73;6.80;;;4.50;99.90;;;;;;5057633;28;20203;-51
2022/01/07 07:18:05;;;;;;;13.00;6.90;;;4.50;99.90;;;;;;5059354;28;20210;-51
2022/01/07 07:20:32;;;;;;;11.97;7.30;;;4.50;99.90;;;;;;5058773;28;20255;-50
2022/01/07 07:22:59;;;;;;;12.27;7.53;;;4.50;99.90;;;;;;5057699;28;20286;-50
2022/01/07 07:25:26;;;;;;;9.77;6.70;;;4.50;99.90;;;;;;5073970;28;20204;-52
2022/01/07 07:27:53;;;;;;;14.43;6.93;;;4.60;99.90;;;;;;5060510;28;20198;-50
2022/01/07 07:30:20;;;;;;;6.93;6.10;;;4.60;99.90;;;;;;5059948;28;20535;-51
2022/01/07 07:32:48;;;;;;;9.63;6.30;;;4.60;99.90;;;;;;5060573;28;20239;-51
2022/01/07 07:37:42;;;;;;;11.17;6.83;;;4.60;99.90;;;;;;5057578;28;20199;-52
2022/01/07 07:40:09;;;;;;;11.07;6.73;;;4.60;99.90;;;;;;5060697;28;20211;-50
2022/01/07 07:42:36;;;;;;;8.47;6.70;;;4.70;99.90;;;;;;5056711;28;20600;-51
2022/01/07 07:45:03;;;;;;;11.73;7.30;;;4.60;99.90;;;;;;5059300;28;20213;-51
2022/01/07 07:47:30;;;;;;;14.40;7.33;;;4.70;99.90;;;;;;5058450;28;20278;-50
2022/01/07 07:49:57;;;;;;;11.40;6.70;;;4.70;99.90;;;;;;5074162;28;20707;-49
2022/01/07 07:52:24;;;;;;;9.97;6.40;;;4.70;99.90;;;;;;5058481;28;20322;-51
2022/01/07 07:54:51;;;;;;;10.20;6.53;;;4.80;99.90;;;;;;5059370;28;20231;-50
2022/01/07 07:57:19;;;;;;;10.17;6.93;;;4.80;99.90;;;;;;5056366;28;20295;-48
2022/01/07 07:59:46;;;;;;;11.03;6.90;;;4.80;99.90;;;;;;5057172;28;20255;-49
2022/01/07 08:02:13;;;;;;;10.17;7.40;;;4.80;99.90;;;;;;5056924;28;20274;-52
2022/01/07 08:04:41;;;;;;;10.93;7.27;;;4.80;99.90;;;;;;5055877;28;20694;-48
2022/01/07 08:07:09;;;;;;;13.33;7.43;;;4.80;99.90;;;;;;5055471;28;20199;-52
2022/01/07 08:09:39;;;;;;;8.23;7.10;;;4.90;99.90;;;;;;5057040;28;20220;-51
2022/01/07 08:12:18;;;;;;;12.40;6.90;;;4.90;99.90;;;;;;5057121;28;20656;-51
2022/01/07 08:17:45;;;;;;;11.50;7.37;;;4.90;99.90;;;;;;5027999;28;20223;-51
2022/01/07 08:20:12;;;;;;;7.90;6.37;;;4.90;99.90;;;;;;5071912;28;20781;-50
2022/01/07 08:22:39;;;;;;;10.10;6.50;;;4.90;99.90;;;;;;5057005;28;20215;-50
2022/01/07 08:25:06;;;;;;;8.73;5.53;;;4.90;99.90;;;;;;5061463;28;20216;-49
2022/01/07 08:27:33;;;;;;;9.23;6.70;;;4.90;99.90;;;;;;5059996;28;20337;-49
2022/01/07 08:30:12;;;;;;;8.53;5.83;;;5.00;99.90;;;;;;5074245;28;20285;-50
2022/01/07 08:35:24;;;;;;;10.53;6.10;;;5.00;99.90;;;;;;5059997;28;20232;-51
2022/01/07 08:37:51;;;;;;;8.60;6.20;;;5.00;99.90;;;;;;5060027;28;20746;-51
2022/01/07 08:40:18;;;;;;;13.40;5.80;;;5.00;99.90;;;;;;5058014;28;21732;-56
2022/01/07 08:42:45;;;;;;;8.40;6.40;;;5.00;99.90;;;;;;5061488;28;20246;-53
2022/01/07 08:45:11;;;;;;;6.30;5.17;;;5.00;99.90;;;;;;5060767;28;20290;-55
2022/01/07 08:47:38;;;;;;;8.23;6.10;;;5.10;99.90;;;;;;5060380;28;20635;-53
2022/01/07 08:50:05;;;;;;;9.97;5.67;;;5.10;99.90;;;;;;5060657;28;20638;-53
2022/01/07 08:52:32;;;;;;;7.97;6.80;;;5.00;99.90;;;;;;5058111;28;21380;-55
2022/01/07 08:54:59;;;;;;;12.50;6.57;;;5.00;99.90;;;;;;5057537;28;20242;-53
2022/01/07 08:57:26;;;;;;;10.97;6.20;;;5.00;99.90;;;;;;5062013;28;20622;-54
2022/01/07 08:59:53;;;;;;;9.07;5.90;;;5.10;99.90;;;;;;5058984;28;20207;-52
2022/01/07 09:02:20;;;;;;;11.00;7.07;;;5.00;99.90;;;;;;5058556;28;20545;-53
2022/01/07 09:04:47;;;;;;;8.47;5.30;;;5.00;99.90;;;;;;5054456;28;20331;-55
2022/01/07 09:07:14;;;;;;;11.33;6.57;;;5.10;99.90;;;;;;5065311;28;20286;-53
2022/01/07 09:09:40;;;;;;;8.60;5.97;;;5.00;99.90;;;;;;5058001;28;20703;-53
2022/01/07 09:12:09;;;;;;;11.13;5.27;;;5.00;99.90;;;;;;5060413;28;20206;-52
2022/01/07 09:14:36;;;;;;;6.73;5.63;;;5.00;99.90;;;;;;5060331;28;20242;-52
2022/01/07 09:17:03;;;;;;;6.17;5.10;;;5.00;99.90;;;;;;5054820;28;20208;-53
2022/01/07 09:19:30;;;;;;;7.37;4.60;;;5.00;99.90;;;;;;5060151;28;20211;-53
2022/01/07 09:21:57;;;;;;;7.33;5.60;;;5.00;99.90;;;;;;5062867;28;20238;-53
2022/01/07 09:24:26;;;;;;;9.83;6.17;;;5.00;99.90;;;;;;5058951;28;20758;-54
2022/01/07 09:26:53;;;;;;;7.43;4.93;;;5.10;99.90;;;;;;5061168;28;20649;-53
2022/01/07 09:29:23;;;;;;;9.20;5.17;;;5.00;99.90;;;;;;5063496;28;20287;-52
2022/01/07 09:31:51;;;;;;;8.77;5.57;;;5.10;99.90;;;;;;5060076;28;20229;-52
2022/01/07 09:34:18;;;;;;;8.77;4.73;;;5.10;99.90;;;;;;5058905;28;20651;-53
2022/01/07 09:36:54;;;;;;;9.23;5.20;;;5.10;99.90;;;;;;5061224;28;20231;-53
2022/01/07 09:39:21;;;;;;;6.10;5.20;;;5.20;99.90;;;;;;5061392;28;20662;-53
2022/01/07 09:41:48;;;;;;;10.40;5.17;;;5.20;99.90;;;;;;5060784;28;20242;-54
2022/01/07 09:44:15;;;;;;;6.07;5.20;;;5.30;99.90;;;;;;5050203;28;20754;-53
2022/01/07 09:46:42;;;;;;;10.73;5.23;;;5.30;99.90;;;;;;5059219;28;20724;-52
2022/01/07 09:49:08;;;;;;;10.00;5.40;;;5.40;99.90;;;;;;5057136;28;20291;-54
2022/01/07 09:51:40;;;;;;;10.00;4.80;;;5.40;99.90;;;;;;5058510;28;20203;-56
2022/01/07 09:54:07;;;;;;;6.80;4.63;;;5.40;99.90;;;;;;5059712;28;20607;-53
2022/01/07 09:56:34;;;;;;;9.37;5.57;;;5.40;99.90;;;;;;5056927;28;20269;-51
2022/01/07 09:59:05;;;;;;;7.23;4.60;;;5.40;99.90;;;;;;5050444;28;20542;-53
2022/01/07 10:01:59;;;;;;;6.93;5.03;;;5.50;99.90;;;;;;5057732;28;20219;-52
2022/01/07 10:04:40;;;;;;;10.13;4.17;;;5.40;99.90;;;;;;5054366;28;20257;-52
2022/01/07 10:07:23;;;;;;;7.07;4.47;;;5.30;99.90;;;;;;5055599;28;20724;-52
2022/01/07 10:09:57;;;;;;;8.20;4.17;;;5.30;99.90;;;;;;5054095;28;20656;-54
2022/01/07 10:12:30;;;;;;;5.03;4.30;;;5.30;99.90;;;;;;5049473;28;20296;-54
2022/01/07 10:15:29;;;;;;;9.07;3.60;;;5.50;99.90;;;;;;5054466;28;20207;-53
2022/01/07 10:18:15;;;;;;;6.47;4.23;;;5.60;99.90;;;;;;5042144;28;20199;-51
2022/01/07 10:20:45;;;;;;;5.13;3.17;;;5.70;99.90;;;;;;5052684;28;20877;-54
2022/01/07 10:23:15;;;;;;;8.43;3.80;;;5.60;99.90;;;;;;5055515;28;20260;-54
2022/01/07 10:25:44;;;;;;;5.00;3.20;;;5.80;99.90;;;;;;5053406;28;20749;-52
2022/01/07 10:28:17;;;;;;;5.30;3.83;;;5.80;99.90;;;;;;5048077;28;21814;-53
2022/01/07 10:30:52;;;;;;;5.77;3.43;;;5.80;99.90;;;;;;5056888;28;20214;-51
2022/01/07 10:33:28;;;;;;;4.13;3.50;;;6.00;99.90;;;;;;5057755;28;20257;-53
2022/01/07 10:36:18;;;;;;;5.07;3.00;;;6.20;99.90;;;;;;5060464;28;20210;-53
2022/01/07 10:39:07;;;;;;;7.03;3.20;;;6.10;99.90;;;;;;5059188;28;20211;-53
2022/01/07 10:41:34;;;;;;;5.83;3.20;;;6.10;99.90;;;;;;5058963;28;20199;-52
2022/01/07 10:44:03;;;;;;;6.00;3.40;;;6.20;99.90;;;;;;5058389;28;20235;-52
2022/01/07 10:46:31;;;;;;;4.10;2.93;;;6.10;99.90;;;;;;5055229;28;20254;-51
2022/01/07 10:49:01;;;;;;;4.07;3.37;;;6.10;99.90;;;;;;5053932;28;20545;-52
2022/01/07 10:51:38;;;;;;;6.97;4.07;;;6.10;99.90;;;;;;5054315;28;20334;-51
2022/01/07 10:54:10;;;;;;;5.60;2.80;;;6.20;99.90;;;;;;5055089;28;20285;-51
2022/01/07 10:56:40;;;;;;;5.33;3.30;;;6.10;99.90;;;;;;5055888;28;20211;-55
2022/01/07 10:59:12;;;;;;;6.40;2.70;;;6.10;99.90;;;;;;5057157;28;20231;-52
2022/01/07 11:01:54;;;;;;;6.50;2.63;;;6.20;99.90;;;;;;5055202;28;20203;-56
2022/01/07 11:04:29;;;;;;;6.87;2.60;;;6.20;99.90;;;;;;5054711;28;20320;-55
2022/01/07 11:06:59;;;;;;;8.03;3.03;;;6.20;99.90;;;;;;5055802;28;20268;-52
2022/01/07 11:09:26;;;;;;;4.10;2.60;;;6.20;99.90;;;;;;5056041;28;20230;-55
2022/01/07 11:12:02;;;;;;;8.60;3.13;;;6.30;99.90;;;;;;5057517;28;20227;-53
2022/01/07 11:14:34;;;;;;;6.47;3.00;;;6.30;99.90;;;;;;5055957;28;20218;-52
2022/01/07 11:17:04;;;;;;;6.10;2.43;;;6.30;99.90;;;;;;5057507;28;20256;-53
2022/01/07 11:19:42;;;;;;;7.63;2.77;;;6.20;99.90;;;;;;5059093;28;20206;-52
2022/01/07 11:22:11;;;;;;;9.23;2.90;;;6.30;99.90;;;;;;5054724;28;20385;-55
2022/01/07 11:25:11;;;;;;;5.23;3.20;;;6.20;99.90;;;;;;5046832;28;20241;-55
2022/01/07 11:27:57;;;;;;;8.50;3.50;;;6.20;99.90;;;;;;5053920;28;20195;-53
2022/01/07 11:30:32;;;;;;;7.57;3.20;;;6.20;99.90;;;;;;5053837;28;20205;-54
2022/01/07 11:33:00;;;;;;;10.77;3.27;;;6.10;99.90;;;;;;5054123;28;20238;-52
2022/01/07 11:35:27;;;;;;;4.53;3.10;;;6.10;99.90;;;;;;5048447;28;20718;-53
2022/01/07 11:37:55;;;;;;;3.87;3.00;;;6.20;99.90;;;;;;5055984;28;20200;-55
2022/01/07 11:40:31;;;;;;;5.80;2.70;;;6.20;99.90;;;;;;5053169;28;20674;-53
2022/01/07 11:43:20;;;;;;;6.23;3.13;;;6.20;99.90;;;;;;5054309;28;20210;-52
2022/01/07 11:45:47;;;;;;;7.13;3.47;;;6.10;99.90;;;;;;5055073;28;20218;-52
2022/01/07 11:48:22;;;;;;;3.30;2.93;;;6.10;99.90;;;;;;5054604;28;20257;-53
2022/01/07 11:50:54;;;;;;;5.57;3.10;;;6.10;99.90;;;;;;5052849;28;20638;-52
2022/01/07 11:53:49;;;;;;;8.63;3.30;;;6.20;99.90;;;;;;5049443;28;21815;-55
2022/01/07 11:56:19;;;;;;;10.47;2.93;;;6.20;99.90;;;;;;5055121;28;20212;-53
2022/01/07 11:58:51;;;;;;;5.40;3.37;;;6.20;99.90;;;;;;5055030;28;20543;-54
2022/01/07 12:01:35;;;;;;;5.37;3.53;;;6.30;99.90;;;;;;5059390;28;20200;-56
2022/01/07 12:04:29;;;;;;;6.23;3.67;;;6.40;99.90;;;;;;5054633;28;20209;-56
2022/01/07 12:06:59;;;;;;;6.43;2.90;;;6.30;99.90;;;;;;5056491;28;20296;-55
2022/01/07 12:09:31;;;;;;;5.93;2.80;;;6.30;99.90;;;;;;5058795;28;20219;-52
2022/01/07 12:12:08;;;;;;;3.30;2.80;;;6.30;99.90;;;;;;5058840;28;20286;-52
2022/01/07 12:14:39;;;;;;;6.00;2.93;;;6.30;99.90;;;;;;5057473;28;20272;-53
2022/01/07 12:17:11;;;;;;;5.67;3.07;;;6.30;99.90;;;;;;5059868;28;20501;-54
2022/01/07 12:19:42;;;;;;;8.33;3.43;;;6.40;99.90;;;;;;5058971;28;20294;-52
2022/01/07 12:22:16;;;;;;;18.67;6.73;;;6.30;99.90;;;;;;5057480;28;20290;-51
2022/01/07 12:24:48;;;;;;;8.07;3.30;;;6.40;99.90;;;;;;5057806;28;20328;-52
2022/01/07 12:27:20;;;;;;;7.90;3.50;;;6.30;99.90;;;;;;5059114;28;20203;-52
2022/01/07 12:29:50;;;;;;;6.83;3.10;;;6.30;99.90;;;;;;5051249;28;20296;-54
2022/01/07 12:32:18;;;;;;;6.03;3.40;;;6.40;99.90;;;;;;5052831;28;20327;-53
2022/01/07 12:34:48;;;;;;;10.77;3.57;;;6.40;99.90;;;;;;5045529;28;20195;-56
2022/01/07 12:37:19;;;;;;;6.00;3.60;;;6.30;99.90;;;;;;5045848;28;20603;-55
2022/01/07 12:39:54;;;;;;;8.20;3.57;;;6.30;99.90;;;;;;5055951;28;20319;-55
2022/01/07 12:42:22;;;;;;;6.50;3.93;;;6.30;99.90;;;;;;5055409;28;20311;-54
2022/01/07 12:44:53;;;;;;;6.67;4.93;;;6.30;99.90;;;;;;5054093;28;20288;-55
2022/01/07 12:47:21;;;;;;;9.37;4.57;;;6.40;99.90;;;;;;5057721;28;20273;-52
2022/01/07 12:49:50;;;;;;;4.80;3.33;;;6.40;99.90;;;;;;5054743;28;20527;-52
2022/01/07 12:52:26;;;;;;;8.60;4.47;;;6.50;99.90;;;;;;5054997;28;20331;-53
2022/01/07 12:55:00;;;;;;;8.00;4.77;;;6.40;99.90;;;;;;5055075;28;20238;-55
2022/01/07 12:57:33;;;;;;;7.97;4.43;;;6.40;99.90;;;;;;5058232;28;20207;-52
2022/01/07 13:00:06;;;;;;;11.37;5.17;;;6.40;99.90;;;;;;5057808;28;20355;-52
2022/01/07 13:02:33;;;;;;;11.93;4.23;;;6.40;99.90;;;;;;5057719;28;20394;-54
2022/01/07 13:05:27;;;;;;;6.67;3.93;;;6.40;99.90;;;;;;5053830;28;20219;-53
2022/01/07 13:07:57;;;;;;;9.30;5.00;;;6.40;99.90;;;;;;5056040;28;20199;-53
2022/01/07 13:10:30;;;;;;;9.40;4.00;;;6.40;99.90;;;;;;5058914;28;20352;-51
2022/01/07 13:13:03;;;;;;;8.97;3.83;;;6.40;99.90;;;;;;5057314;28;20257;-53